createdAt,value
2019-05-01T00:00:27.877Z,90.99
2019-05-01T00:03:16.431Z,91.29
2019-05-01T00:05:45.765Z,91.76
2019-05-01T00:08:12.440Z,92.28
2019-05-01T00:10:38.948Z,92.34
2019-05-01T00:13:06.213Z,92.02
2019-05-01T00:15:34.346Z,92.16
2019-05-01T00:18:01.010Z,92.33
2019-05-01T00:20:27.907Z,91.62
2019-05-01T00:22:54.531Z,91.69
2019-05-01T00:25:21.117Z,92.23
2019-05-01T00:27:47.601Z,92.19
2019-05-01T00:30:29.286Z,91.79
2019-05-01T00:32:45.796Z,92.30
2019-05-01T00:35:12.359Z,92.87
2019-05-01T00:37:38.852Z,93.60
2019-05-01T00:40:05.561Z,94.05
2019-05-01T00:42:32.045Z,93.86
2019-05-01T00:44:58.833Z,93.86
2019-05-01T00:47:25.628Z,93.98
2019-05-01T00:49:52.263Z,94.01
2019-05-01T00:52:18.744Z,93.71
2019-05-01T00:54:47.559Z,94.52
2019-05-01T00:57:38.332Z,95.01
2019-05-01T01:00:19.202Z,94.75
2019-05-01T01:02:49.037Z,94.76
2019-05-01T01:05:15.615Z,94.14
2019-05-01T01:07:42.131Z,93.74
2019-05-01T01:10:08.699Z,93.84
2019-05-01T01:12:35.356Z,93.98
2019-05-01T01:15:01.866Z,94.06
2019-05-01T01:17:28.303Z,94.38
2019-05-01T01:19:54.808Z,94.95
2019-05-01T01:22:27.322Z,95.39
2019-05-01T01:24:54.212Z,95.49
2019-05-01T01:27:20.713Z,95.66
2019-05-01T01:29:47.383Z,95.92
2019-05-01T01:32:13.884Z,95.88
2019-05-01T01:34:40.757Z,95.92
2019-05-01T01:37:07.994Z,96.40
2019-05-01T01:39:34.892Z,96.61
2019-05-01T01:42:01.532Z,96.73
2019-05-01T01:44:39.865Z,96.65
2019-05-01T01:47:06.461Z,96.89
2019-05-01T01:49:33.085Z,97.27
2019-05-01T01:51:59.992Z,97.47
2019-05-01T01:54:27.009Z,97.40
2019-05-01T01:56:53.813Z,97.31
2019-05-01T01:59:20.922Z,97.17
2019-05-01T02:02:09.915Z,97.40
2019-05-01T02:05:13.883Z,97.25
2019-05-01T02:07:40.628Z,97.33
2019-05-01T02:10:07.709Z,97.30
2019-05-01T02:12:35.177Z,97.26
2019-05-01T02:15:01.668Z,97.29
2019-05-01T02:17:28.163Z,97.67
2019-05-01T02:19:54.767Z,97.74
2019-05-01T02:22:21.212Z,97.45
2019-05-01T02:24:47.745Z,97.68
2019-05-01T02:27:19.861Z,97.93
2019-05-01T02:29:50.792Z,97.95
2019-05-01T02:32:19.025Z,98.36
2019-05-01T02:34:46.389Z,98.67
2019-05-01T02:37:14.432Z,98.95
2019-05-01T02:39:42.027Z,98.88
2019-05-01T02:42:10.221Z,98.62
2019-05-01T02:44:38.961Z,98.30
2019-05-01T02:47:09.491Z,97.97
2019-05-01T02:49:50.057Z,98.13
2019-05-01T02:52:16.877Z,98.31
2019-05-01T02:54:44.732Z,98.09
2019-05-01T02:57:14.070Z,97.79
2019-05-01T02:59:49.247Z,97.83
2019-05-01T03:02:16.339Z,97.40
2019-05-01T03:04:43.767Z,97.22
2019-05-01T03:07:10.842Z,97.19
2019-05-01T03:09:37.750Z,96.98
2019-05-01T03:12:05.128Z,96.58
2019-05-01T03:14:34.317Z,96.14
2019-05-01T03:17:03.199Z,95.94
2019-05-01T03:20:04.793Z,95.68
2019-05-01T03:22:43.849Z,95.32
2019-05-01T03:25:11.265Z,94.62
2019-05-01T03:27:38.063Z,94.17
2019-05-01T03:30:04.807Z,93.72
2019-05-01T03:32:31.878Z,93.13
2019-05-01T03:34:58.440Z,93.26
2019-05-01T03:37:25.255Z,92.94
2019-05-01T03:39:52.490Z,92.51
2019-05-01T03:42:19.060Z,92.51
2019-05-01T03:44:45.647Z,92.24
2019-05-01T03:47:14.394Z,92.33
2019-05-01T03:49:41.909Z,91.93
2019-05-01T03:52:08.683Z,91.38
2019-05-01T03:54:35.286Z,91.12
2019-05-01T03:57:01.880Z,91.11
2019-05-01T03:59:28.752Z,90.51
2019-05-01T04:02:32.359Z,90.32
2019-05-01T04:04:46.444Z,89.76
2019-05-01T04:07:13.047Z,89.25
2019-05-01T04:09:40.407Z,89.23
2019-05-01T04:12:07.103Z,89.04
2019-05-01T04:14:34.105Z,88.99
2019-05-01T04:17:09.122Z,89.25
2019-05-01T04:19:36.205Z,89.58
2019-05-01T04:22:09.687Z,89.20
2019-05-01T04:24:36.326Z,88.73
2019-05-01T04:27:04.921Z,88.73
2019-05-01T04:29:40.940Z,88.46
2019-05-01T04:32:14.291Z,88.60
2019-05-01T04:35:00.814Z,88.77
2019-05-01T04:37:27.811Z,88.55
2019-05-01T04:39:54.372Z,88.46
2019-05-01T04:42:21.922Z,88.67
2019-05-01T04:44:48.826Z,88.67
2019-05-01T04:47:16.065Z,88.36
2019-05-01T04:49:42.679Z,88.01
2019-05-01T04:52:09.399Z,87.76
2019-05-01T04:54:36.095Z,87.68
2019-05-01T04:57:03.097Z,87.74
2019-05-01T04:59:29.706Z,87.61
2019-05-01T05:04:32.522Z,87.17
2019-05-01T05:06:59.857Z,86.86
2019-05-01T05:09:46.159Z,86.21
2019-05-01T05:12:22.503Z,85.67
2019-05-01T05:14:54.097Z,84.96
2019-05-01T05:17:21.965Z,84.47
2019-05-01T05:19:49.017Z,84.30
2019-05-01T05:22:16.678Z,83.48
2019-05-01T05:24:43.253Z,82.74
2019-05-01T05:27:10.173Z,82.79
2019-05-01T05:29:36.841Z,82.70
2019-05-01T05:32:03.546Z,83.10
2019-05-01T05:34:31.961Z,83.58
2019-05-01T05:37:02.437Z,83.98
2019-05-01T05:39:37.720Z,84.78
2019-05-01T05:42:04.559Z,85.08
2019-05-01T05:44:31.429Z,85.10
2019-05-01T05:46:58.043Z,85.22
2019-05-01T05:49:24.800Z,85.18
2019-05-01T05:52:11.074Z,85.19
2019-05-01T05:55:07.849Z,84.81
2019-05-01T05:57:40.436Z,84.20
2019-05-01T06:00:25.793Z,83.69
2019-05-01T06:03:13.118Z,83.34
2019-05-01T06:05:52.543Z,82.23
2019-05-01T06:08:24.292Z,81.91
2019-05-01T06:11:10.888Z,81.63
2019-05-01T06:13:58.912Z,80.69
2019-05-01T06:16:41.775Z,79.80
2019-05-01T06:19:29.364Z,79.67
2019-05-01T06:22:11.884Z,79.92
2019-05-01T06:24:42.406Z,79.88
2019-05-01T06:27:13.743Z,79.71
2019-05-01T06:29:38.929Z,78.98
2019-05-01T06:32:06.060Z,77.93
2019-05-01T06:34:32.721Z,77.48
2019-05-01T06:36:59.229Z,77.83
2019-05-01T06:39:26.194Z,78.18
2019-05-01T06:41:53.004Z,77.80
2019-05-01T06:44:33.500Z,77.45
2019-05-01T06:47:21.009Z,77.83
2019-05-01T06:50:07.492Z,78.40
2019-05-01T06:52:35.151Z,77.66
2019-05-01T06:55:01.997Z,77.69
2019-05-01T06:57:31.063Z,77.36
2019-05-01T07:00:02.872Z,77.63
2019-05-01T07:02:29.916Z,79.10
2019-05-01T07:04:56.752Z,80.07
2019-05-01T07:07:25.695Z,80.05
2019-05-01T07:09:53.895Z,81.33
2019-05-01T07:12:23.977Z,80.25
2019-05-01T07:14:51.145Z,80.73
2019-05-01T07:17:18.696Z,79.14
2019-05-01T07:20:04.799Z,79.00
2019-05-01T07:22:31.642Z,78.52
2019-05-01T07:25:04.196Z,77.08
2019-05-01T07:27:27.924Z,76.27
2019-05-01T07:29:58.004Z,74.41
2019-05-01T07:32:24.668Z,74.66
2019-05-01T07:34:51.455Z,73.31
2019-05-01T07:37:20.872Z,73.18
2019-05-01T07:39:49.858Z,72.63
2019-05-01T07:42:30.183Z,69.63
2019-05-01T07:45:03.905Z,68.76
2019-05-01T07:47:39.257Z,67.29
2019-05-01T07:50:08.008Z,66.42
2019-05-01T07:52:35.212Z,65.57
2019-05-01T07:55:02.018Z,63.93
2019-05-01T07:57:28.642Z,63.01
2019-05-01T07:59:58.204Z,62.62
2019-05-01T08:02:25.814Z,62.90
2019-05-01T08:04:53.686Z,61.77
2019-05-01T08:07:20.183Z,59.96
2019-05-01T08:09:50.242Z,59.87
2019-05-01T08:12:18.867Z,57.73
2019-05-01T08:14:47.810Z,56.71
2019-05-01T08:17:18.104Z,56.92
2019-05-01T08:19:54.010Z,55.76
2019-05-01T08:22:22.792Z,54.06
2019-05-01T08:24:49.339Z,52.71
2019-05-01T08:27:37.264Z,50.52
2019-05-01T08:30:22.709Z,51.14
2019-05-01T08:33:09.814Z,47.71
2019-05-01T08:35:37.661Z,44.56
2019-05-01T08:38:04.313Z,45.11
2019-05-01T08:40:30.835Z,44.42
2019-05-01T08:42:57.344Z,43.96
2019-05-01T08:46:01.800Z,44.50
2019-05-01T08:48:41.647Z,43.51
2019-05-01T08:51:09.269Z,42.85
2019-05-01T08:53:35.844Z,43.05
2019-05-01T08:56:02.819Z,44.08
2019-05-01T08:58:29.419Z,43.16
2019-05-01T09:00:55.925Z,43.16
2019-05-01T09:03:22.452Z,44.17
2019-05-01T09:05:52.308Z,43.14
2019-05-01T09:08:17.482Z,42.26
2019-05-01T09:10:43.968Z,41.44
2019-05-01T09:13:10.522Z,41.18
2019-05-01T09:15:37.372Z,38.76
2019-05-01T09:18:05.140Z,38.76
2019-05-01T09:20:32.829Z,37.70
2019-05-01T09:22:59.400Z,37.85
2019-05-01T09:25:35.393Z,38.69
2019-05-01T09:28:12.273Z,38.59
2019-05-01T09:30:47.601Z,36.48
2019-05-01T09:33:14.126Z,35.18
2019-05-01T09:35:45.353Z,34.18
2019-05-01T09:38:09.396Z,34.74
2019-05-01T09:40:35.974Z,34.54
2019-05-01T09:43:03.675Z,33.56
2019-05-01T09:45:30.192Z,32.80
2019-05-01T09:47:56.911Z,31.60
2019-05-01T09:50:25.776Z,32.24
2019-05-01T09:53:13.928Z,30.65
2019-05-01T09:55:52.513Z,30.93
2019-05-01T09:58:19.050Z,31.38
2019-05-01T10:00:48.906Z,31.33
2019-05-01T10:03:16.871Z,33.37
2019-05-01T10:05:44.190Z,33.07
2019-05-01T10:08:12.928Z,33.57
2019-05-01T10:10:39.410Z,33.92
2019-05-01T10:13:05.973Z,35.30
2019-05-01T10:15:32.517Z,35.11
2019-05-01T10:18:02.265Z,34.44
2019-05-01T10:20:29.037Z,32.54
2019-05-01T10:22:55.763Z,32.68
2019-05-01T10:25:22.316Z,33.79
2019-05-01T10:27:58.180Z,33.97
2019-05-01T10:30:37.567Z,31.67
2019-05-01T10:33:07.297Z,32.45
2019-05-01T10:35:59.086Z,32.51
2019-05-01T10:38:25.611Z,32.04
2019-05-01T10:40:52.171Z,32.45
2019-05-01T10:43:18.640Z,32.32
2019-05-01T10:45:45.146Z,31.45
2019-05-01T10:48:11.636Z,32.09
2019-05-01T10:50:38.133Z,30.64
2019-05-01T10:53:04.821Z,31.96
2019-05-01T10:55:31.303Z,32.23
2019-05-01T10:57:57.861Z,30.85
2019-05-01T11:00:24.435Z,32.02
2019-05-01T11:02:50.902Z,33.13
2019-05-01T11:05:17.541Z,32.37
2019-05-01T11:07:44.053Z,34.68
2019-05-01T11:10:11.109Z,35.49
2019-05-01T11:12:37.617Z,36.14
2019-05-01T11:15:04.784Z,35.62
2019-05-01T11:17:31.261Z,36.29
2019-05-01T11:19:57.769Z,34.09
2019-05-01T11:22:24.740Z,33.61
2019-05-01T11:24:52.357Z,33.46
2019-05-01T11:27:18.882Z,34.64
2019-05-01T11:29:45.368Z,34.76
2019-05-01T11:32:23.411Z,34.34
2019-05-01T11:35:08.316Z,33.63
2019-05-01T11:37:40.837Z,33.19
2019-05-01T11:40:13.074Z,33.59
2019-05-01T11:42:39.669Z,33.83
2019-05-01T11:45:07.273Z,32.62
2019-05-01T11:47:33.890Z,33.58
2019-05-01T11:50:00.498Z,33.52
2019-05-01T11:52:28.157Z,32.25
2019-05-01T11:54:54.707Z,34.05
2019-05-01T11:57:21.253Z,33.57
2019-05-01T11:59:48.382Z,33.28
2019-05-01T12:02:15.203Z,33.01
2019-05-01T12:04:41.752Z,32.50
2019-05-01T12:07:08.218Z,31.76
2019-05-01T12:09:34.863Z,31.69
2019-05-01T12:12:05.086Z,32.37
2019-05-01T12:14:31.808Z,32.67
2019-05-01T12:17:07.325Z,33.18
2019-05-01T12:19:41.893Z,32.60
2019-05-01T12:22:08.394Z,32.47
2019-05-01T12:24:35.888Z,32.30
2019-05-01T12:27:02.509Z,34.22
2019-05-01T12:29:29.029Z,33.25
2019-05-01T12:31:55.538Z,32.32
2019-05-01T12:34:22.113Z,33.14
2019-05-01T12:36:49.576Z,33.12
2019-05-01T12:39:22.938Z,32.72
2019-05-01T12:41:56.366Z,33.66
2019-05-01T12:44:22.964Z,33.92
2019-05-01T12:47:10.293Z,34.43
2019-05-01T12:49:37.154Z,32.78
2019-05-01T12:52:10.516Z,34.08
2019-05-01T12:54:41.998Z,33.32
2019-05-01T12:57:08.552Z,32.76
2019-05-01T12:59:35.056Z,32.71
2019-05-01T13:02:01.808Z,32.47
2019-05-01T13:04:28.481Z,34.54
2019-05-01T13:06:56.568Z,32.57
2019-05-01T13:09:27.104Z,31.91
2019-05-01T13:11:53.608Z,31.65
2019-05-01T13:14:22.158Z,31.81
2019-05-01T13:16:48.946Z,31.01
2019-05-01T13:19:15.392Z,30.88
2019-05-01T13:21:42.018Z,29.71
2019-05-01T13:24:09.091Z,30.55
2019-05-01T13:26:40.948Z,30.67
2019-05-01T13:29:13.809Z,30.03
2019-05-01T13:32:15.414Z,29.09
2019-05-01T13:34:41.979Z,31.20
2019-05-01T13:37:08.509Z,35.12
2019-05-01T13:39:35.193Z,36.10
2019-05-01T13:42:01.971Z,36.41
2019-05-01T13:44:30.664Z,36.14
2019-05-01T13:46:57.216Z,36.88
2019-05-01T13:49:23.859Z,37.08
2019-05-01T13:51:52.503Z,36.32
2019-05-01T13:54:19.094Z,35.42
2019-05-01T13:56:45.839Z,36.08
2019-05-01T13:59:13.829Z,36.83
2019-05-01T14:01:40.638Z,37.74
2019-05-01T14:04:08.040Z,38.09
2019-05-01T14:06:34.500Z,39.11
2019-05-01T14:09:01.015Z,38.95
2019-05-01T14:11:27.997Z,39.44
2019-05-01T14:13:54.718Z,39.97
2019-05-01T14:16:21.867Z,40.02
2019-05-01T14:18:49.119Z,39.89
2019-05-01T14:21:23.593Z,40.23
2019-05-01T14:24:01.602Z,40.06
2019-05-01T14:26:30.489Z,39.62
2019-05-01T14:28:57.061Z,39.14
2019-05-01T14:31:23.988Z,38.58
2019-05-01T14:33:50.956Z,39.04
2019-05-01T14:36:17.477Z,38.36
2019-05-01T14:38:44.150Z,37.48
2019-05-01T14:41:10.686Z,38.28
2019-05-01T14:43:37.928Z,38.91
2019-05-01T14:46:04.570Z,39.10
2019-05-01T14:48:31.221Z,39.09
2019-05-01T14:50:58.088Z,39.71
2019-05-01T14:53:25.892Z,40.01
2019-05-01T14:55:52.509Z,40.11
2019-05-01T14:58:19.188Z,40.63
2019-05-01T15:00:46.061Z,39.96
2019-05-01T15:03:12.563Z,40.09
2019-05-01T15:05:39.111Z,40.67
2019-05-01T15:08:06.202Z,40.46
2019-05-01T15:10:32.911Z,40.86
2019-05-01T15:13:02.004Z,40.61
2019-05-01T15:15:52.135Z,40.98
2019-05-01T15:18:24.814Z,40.34
2019-05-01T15:20:51.359Z,41.26
2019-05-01T15:23:20.358Z,41.71
2019-05-01T15:25:47.356Z,42.04
2019-05-01T15:28:13.826Z,41.95
2019-05-01T15:30:42.001Z,42.22
2019-05-01T15:33:09.143Z,42.33
2019-05-01T15:35:36.653Z,41.56
2019-05-01T15:38:03.690Z,41.18
2019-05-01T15:40:47.227Z,42.29
2019-05-01T15:43:31.990Z,42.54
2019-05-01T15:45:58.599Z,42.03
2019-05-01T15:48:25.210Z,43.58
2019-05-01T15:50:51.782Z,43.34
2019-05-01T15:53:18.292Z,43.50
2019-05-01T15:55:46.592Z,43.86
2019-05-01T15:58:13.622Z,44.03
2019-05-01T16:00:40.191Z,43.02
2019-05-01T16:03:06.669Z,42.58
2019-05-01T16:05:33.277Z,42.79
2019-05-01T16:08:09.387Z,43.00
2019-05-01T16:10:33.775Z,43.76
2019-05-01T16:13:01.565Z,42.93
2019-05-01T16:15:29.750Z,44.00
2019-05-01T16:17:56.687Z,42.97
2019-05-01T16:20:24.279Z,43.23
2019-05-01T16:22:50.747Z,43.29
2019-05-01T16:25:17.428Z,43.13
2019-05-01T16:27:44.254Z,43.68
2019-05-01T16:30:12.891Z,44.41
2019-05-01T16:32:39.444Z,44.56
2019-05-01T16:35:06.347Z,44.37
2019-05-01T16:37:32.885Z,44.69
2019-05-01T16:40:31.533Z,44.45
2019-05-01T16:42:58.290Z,44.92
2019-05-01T16:45:25.544Z,44.97
2019-05-01T16:47:52.160Z,44.23
2019-05-01T16:50:23.625Z,44.21
2019-05-01T16:52:50.393Z,43.92
2019-05-01T16:55:16.970Z,44.38
2019-05-01T16:57:43.489Z,44.66
2019-05-01T17:00:10.990Z,44.67
2019-05-01T17:03:10.306Z,44.66
2019-05-01T17:05:58.857Z,45.36
2019-05-01T17:08:45.723Z,46.11
2019-05-01T17:11:12.542Z,46.03
2019-05-01T17:13:39.186Z,46.29
2019-05-01T17:16:05.821Z,46.67
2019-05-01T17:18:32.309Z,47.04
2019-05-01T17:20:58.843Z,47.04
2019-05-01T17:23:25.373Z,47.18
2019-05-01T17:25:52.937Z,46.75
2019-05-01T17:28:19.447Z,46.95
2019-05-01T17:30:49.362Z,47.40
2019-05-01T17:33:20.626Z,47.37
2019-05-01T17:35:44.538Z,46.99
2019-05-01T17:38:11.059Z,47.00
2019-05-01T17:40:37.520Z,47.21
2019-05-01T17:43:08.153Z,47.51
2019-05-01T17:45:34.794Z,47.29
2019-05-01T17:48:01.085Z,47.49
2019-05-01T17:50:27.535Z,47.67
2019-05-01T17:52:54.536Z,48.37
2019-05-01T17:55:21.229Z,48.02
2019-05-01T17:57:47.723Z,48.83
2019-05-01T18:00:39.781Z,48.82
2019-05-01T18:03:18.120Z,49.31
2019-05-01T18:06:13.198Z,49.70
2019-05-01T18:08:39.741Z,50.56
2019-05-01T18:11:09.273Z,50.65
2019-05-01T18:13:35.021Z,51.56
2019-05-01T18:16:01.979Z,52.40
2019-05-01T18:18:28.543Z,52.87
2019-05-01T18:20:57.247Z,53.36
2019-05-01T18:23:42.835Z,54.41
2019-05-01T18:26:18.664Z,55.35
2019-05-01T18:28:55.388Z,55.81
2019-05-01T18:31:27.993Z,57.39
2019-05-01T18:33:56.997Z,57.70
2019-05-01T18:36:30.990Z,57.70
2019-05-01T18:39:01.835Z,58.34
2019-05-01T18:41:41.253Z,58.55
2019-05-01T18:44:10.185Z,58.25
2019-05-01T18:46:37.760Z,58.84
2019-05-01T18:49:04.389Z,59.35
2019-05-01T18:51:31.226Z,59.86
2019-05-01T18:53:58.899Z,60.69
2019-05-01T18:56:26.654Z,61.31
2019-05-01T18:58:53.223Z,61.92
2019-05-01T19:01:20.232Z,62.49
2019-05-01T19:03:46.774Z,62.90
2019-05-01T19:06:13.270Z,63.45
2019-05-01T19:08:40.221Z,63.78
2019-05-01T19:11:12.839Z,64.21
2019-05-01T19:13:37.886Z,64.82
2019-05-01T19:16:08.290Z,65.03
2019-05-01T19:18:33.494Z,65.39
2019-05-01T19:21:00.172Z,65.59
2019-05-01T19:23:33.177Z,65.70
2019-05-01T19:26:03.579Z,66.08
2019-05-01T19:28:27.772Z,66.14
2019-05-01T19:30:59.748Z,66.65
2019-05-01T19:33:26.371Z,66.68
2019-05-01T19:35:54.258Z,66.81
2019-05-01T19:38:20.756Z,66.92
2019-05-01T19:40:47.641Z,66.83
2019-05-01T19:43:14.197Z,66.78
2019-05-01T19:45:40.917Z,67.03
2019-05-01T19:48:07.497Z,67.53
2019-05-01T19:50:39.854Z,67.76
2019-05-01T19:53:04.803Z,67.92
2019-05-01T19:55:33.711Z,68.44
2019-05-01T19:58:00.799Z,68.60
2019-05-01T20:00:57.961Z,68.87
2019-05-01T20:03:24.640Z,69.38
2019-05-01T20:05:52.371Z,69.61
2019-05-01T20:08:19.161Z,69.81
2019-05-01T20:10:45.792Z,69.88
2019-05-01T20:13:15.859Z,69.76
2019-05-01T20:15:42.909Z,69.71
2019-05-01T20:18:09.523Z,69.73
2019-05-01T20:20:36.314Z,70.03
2019-05-01T20:23:02.944Z,70.03
2019-05-01T20:25:29.643Z,70.21
2019-05-01T20:28:02.158Z,70.52
2019-05-01T20:30:29.766Z,70.78
2019-05-01T20:33:02.445Z,70.99
2019-05-01T20:35:34.243Z,71.17
2019-05-01T20:38:00.796Z,71.08
2019-05-01T20:40:27.338Z,71.18
2019-05-01T20:42:54.012Z,71.16
2019-05-01T20:45:20.684Z,71.14
2019-05-01T20:47:48.172Z,70.95
2019-05-01T20:50:15.329Z,71.20
2019-05-01T20:52:43.827Z,71.49
2019-05-01T20:55:10.414Z,71.81
2019-05-01T20:57:38.955Z,72.00
2019-05-01T21:00:11.457Z,72.13
2019-05-01T21:02:38.898Z,72.22
2019-05-01T21:05:16.294Z,72.57
2019-05-01T21:07:56.212Z,72.73
2019-05-01T21:10:24.820Z,72.85
2019-05-01T21:12:51.088Z,72.82
2019-05-01T21:15:19.999Z,72.81
2019-05-01T21:17:49.223Z,72.96
2019-05-01T21:20:14.457Z,72.91
2019-05-01T21:22:41.061Z,73.29
2019-05-01T21:25:08.116Z,73.26
2019-05-01T21:27:34.721Z,73.55
2019-05-01T21:30:01.374Z,73.57
2019-05-01T21:32:27.974Z,73.60
2019-05-01T21:34:54.583Z,73.48
2019-05-01T21:37:21.102Z,73.33
2019-05-01T21:39:47.821Z,73.44
2019-05-01T21:42:16.116Z,73.17
2019-05-01T21:44:43.707Z,73.05
2019-05-01T21:47:10.324Z,72.96
2019-05-01T21:49:36.923Z,72.77
2019-05-01T21:52:07.397Z,72.69
2019-05-01T21:54:34.193Z,72.59
2019-05-01T21:57:00.865Z,72.34
2019-05-01T21:59:29.063Z,72.19
2019-05-01T22:01:55.607Z,72.58
2019-05-01T22:04:22.308Z,72.61
2019-05-01T22:06:51.874Z,72.75
2019-05-01T22:09:21.684Z,72.90
2019-05-01T22:11:48.299Z,73.19
2019-05-01T22:14:25.132Z,73.44
2019-05-01T22:16:53.185Z,73.54
2019-05-01T22:19:20.432Z,73.37
2019-05-01T22:22:05.230Z,73.28
2019-05-01T22:24:39.857Z,73.46
2019-05-01T22:27:13.734Z,73.79
2019-05-01T22:29:46.616Z,73.94
2019-05-01T22:32:21.879Z,73.94
2019-05-01T22:34:59.376Z,74.18
2019-05-01T22:37:26.002Z,74.42
2019-05-01T22:40:00.434Z,74.44
2019-05-01T22:42:26.961Z,74.38
2019-05-01T22:44:53.541Z,74.46
2019-05-01T22:47:20.511Z,74.45
2019-05-01T22:49:47.178Z,74.55
2019-05-01T22:52:13.639Z,74.79
2019-05-01T22:54:44.830Z,74.84
2019-05-01T22:57:08.862Z,74.75
2019-05-01T22:59:35.326Z,74.75
2019-05-01T23:02:11.738Z,74.89
2019-05-01T23:04:38.666Z,75.35
2019-05-01T23:07:05.130Z,75.42
2019-05-01T23:09:32.350Z,75.74
2019-05-01T23:11:58.940Z,76.15
2019-05-01T23:14:26.114Z,76.30
2019-05-01T23:17:03.375Z,76.43
2019-05-01T23:19:33.227Z,76.73
2019-05-01T23:22:00.024Z,76.90
2019-05-01T23:24:26.511Z,77.07
2019-05-01T23:26:53.091Z,77.32
2019-05-01T23:29:19.547Z,77.85
2019-05-01T23:31:46.030Z,78.14
2019-05-01T23:34:12.655Z,78.64
2019-05-01T23:36:39.137Z,78.42
2019-05-01T23:39:05.676Z,78.38
2019-05-01T23:41:45.280Z,78.42
2019-05-01T23:44:03.577Z,78.32
2019-05-01T23:46:29.701Z,78.38
2019-05-01T23:48:56.344Z,78.28
2019-05-01T23:51:23.793Z,78.77
2019-05-01T23:53:51.320Z,79.24
2019-05-01T23:56:17.955Z,80.11
2019-05-01T23:58:44.585Z,80.28
